createdAt,value
2022-11-05T00:03:54.373Z,30.20
2022-11-05T00:07:38.526Z,32.20
2022-11-05T00:10:59.975Z,29.30
2022-11-05T00:14:56.492Z,26.90
2022-11-05T00:18:17.937Z,31.60
2022-11-05T00:22:14.663Z,29.20
2022-11-05T00:25:35.941Z,29.30
2022-11-05T00:29:33.797Z,22.40
2022-11-05T00:33:14.435Z,33.40
2022-11-05T00:36:35.611Z,27.40
2022-11-05T00:40:14.803Z,23.30
2022-11-05T00:44:09.729Z,18.50
2022-11-05T00:48:08.782Z,11.90
2022-11-05T00:51:29.994Z,10.80
2022-11-05T00:55:32.729Z,8.90
2022-11-05T00:59:12.881Z,7.00
2022-11-05T01:02:52.808Z,9.30
2022-11-05T01:06:16.124Z,7.70
2022-11-05T01:10:10.178Z,7.60
2022-11-05T01:13:32.287Z,7.20
2022-11-05T01:17:27.102Z,7.00
2022-11-05T01:20:49.226Z,5.20
2022-11-05T01:24:25.498Z,5.60
2022-11-05T01:28:04.607Z,5.90
2022-11-05T01:31:59.807Z,4.80
2022-11-05T01:35:21.152Z,6.20
2022-11-05T01:38:58.532Z,5.20
2022-11-05T01:42:36.358Z,8.00
2022-11-05T01:46:45.146Z,6.90
2022-11-05T01:50:32.539Z,7.10
2022-11-05T01:54:06.281Z,8.10
2022-11-05T01:57:33.038Z,7.70
2022-11-05T02:01:28.941Z,9.50
2022-11-05T02:04:54.961Z,8.70
2022-11-05T02:09:12.537Z,7.50
2022-11-05T02:12:36.720Z,9.50
2022-11-05T02:16:17.909Z,8.40
2022-11-05T02:20:09.608Z,10.60
2022-11-05T02:24:02.058Z,9.10
2022-11-05T02:27:54.364Z,9.60
2022-11-05T02:31:31.050Z,9.30
2022-11-05T02:35:41.033Z,13.00
2022-11-05T02:39:50.330Z,9.90
2022-11-05T02:43:22.168Z,11.30
2022-11-05T02:46:57.803Z,9.20
2022-11-05T02:50:55.908Z,9.90
2022-11-05T02:54:24.600Z,10.10
2022-11-05T02:57:55.396Z,7.90
2022-11-05T03:01:35.987Z,11.30
2022-11-05T03:05:10.701Z,6.80
2022-11-05T03:09:12.366Z,6.30
2022-11-05T03:13:11.568Z,8.00
2022-11-05T03:17:15.896Z,10.60
2022-11-05T03:20:59.103Z,7.00
2022-11-05T03:24:26.726Z,6.90
2022-11-05T03:28:21.379Z,7.00
2022-11-05T03:32:04.051Z,7.80
2022-11-05T03:35:29.532Z,6.70
2022-11-05T03:39:49.937Z,6.60
2022-11-05T03:43:14.310Z,6.10
2022-11-05T03:46:49.800Z,8.20
2022-11-05T03:50:42.005Z,8.60
2022-11-05T03:54:05.083Z,9.50
2022-11-05T03:57:44.219Z,8.10
2022-11-05T04:01:18.754Z,10.00
2022-11-05T04:04:56.530Z,8.10
2022-11-05T04:08:52.939Z,8.40
2022-11-05T04:12:33.267Z,9.30
2022-11-05T04:16:32.091Z,8.10
2022-11-05T04:20:11.972Z,8.20
2022-11-05T04:23:52.554Z,7.80
2022-11-05T04:27:13.707Z,10.70
2022-11-05T04:30:51.214Z,7.90
2022-11-05T04:34:29.127Z,10.30
2022-11-05T04:38:09.412Z,11.90
2022-11-05T04:41:48.004Z,9.60
2022-11-05T04:45:23.928Z,9.70
2022-11-05T04:48:59.936Z,11.50
2022-11-05T04:52:37.640Z,8.90
2022-11-05T04:56:19.808Z,10.80
2022-11-05T04:59:55.119Z,13.40
2022-11-05T05:03:51.284Z,15.80
2022-11-05T05:07:31.984Z,13.00
2022-11-05T05:10:52.699Z,14.30
2022-11-05T05:14:30.103Z,11.70
2022-11-05T05:18:09.545Z,13.30
2022-11-05T05:21:45.377Z,14.60
2022-11-05T05:25:41.935Z,12.20
2022-11-05T05:29:03.642Z,12.70
2022-11-05T05:33:02.404Z,13.90
2022-11-05T05:36:23.943Z,19.10
2022-11-05T05:40:01.088Z,13.00
2022-11-05T05:43:38.458Z,14.30
2022-11-05T05:47:16.353Z,12.50
2022-11-05T05:50:53.925Z,12.30
2022-11-05T05:54:50.543Z,13.20
2022-11-05T05:58:11.208Z,10.20
2022-11-05T06:01:49.149Z,14.40
2022-11-05T06:05:26.456Z,12.00
2022-11-05T06:09:04.280Z,15.90
2022-11-05T06:12:41.818Z,10.10
2022-11-05T06:16:39.726Z,11.20
2022-11-05T06:20:19.444Z,10.20
2022-11-05T06:23:42.260Z,11.40
2022-11-05T06:27:36.578Z,11.30
2022-11-05T06:30:57.924Z,11.10
2022-11-05T06:34:36.832Z,15.60
2022-11-05T06:38:33.539Z,14.10
2022-11-05T06:42:20.571Z,11.50
2022-11-05T06:45:41.861Z,11.40
2022-11-05T06:49:38.866Z,10.50
2022-11-05T06:53:18.459Z,13.30
2022-11-05T06:56:57.962Z,12.20
2022-11-05T07:00:38.468Z,11.70
2022-11-05T07:03:59.204Z,11.90
2022-11-05T07:07:53.922Z,10.20
2022-11-05T07:11:14.544Z,11.10
2022-11-05T07:14:52.492Z,10.50
2022-11-05T07:18:48.837Z,11.20
2022-11-05T07:22:28.244Z,12.60
2022-11-05T07:25:48.786Z,10.70
2022-11-05T07:29:45.439Z,12.10
2022-11-05T07:33:24.851Z,14.10
2022-11-05T07:37:04.522Z,15.30
2022-11-05T07:40:28.013Z,13.30
2022-11-05T07:44:04.145Z,12.20
2022-11-05T07:48:02.317Z,16.50
2022-11-05T07:51:23.299Z,13.20
2022-11-05T07:55:00.739Z,10.70
2022-11-05T07:58:39.066Z,16.60
2022-11-05T08:02:16.339Z,13.00
2022-11-05T08:06:12.876Z,16.50
2022-11-05T08:09:33.743Z,11.10
2022-11-05T08:13:13.403Z,13.50
2022-11-05T08:17:08.019Z,12.60
2022-11-05T08:20:29.379Z,14.30
2022-11-05T08:24:06.672Z,12.90
2022-11-05T08:27:45.735Z,11.50
2022-11-05T08:31:40.266Z,9.20
2022-11-05T08:35:19.885Z,9.50
2022-11-05T08:38:58.983Z,10.10
2022-11-05T08:42:19.650Z,11.20
2022-11-05T08:46:16.395Z,11.50
2022-11-05T08:49:37.307Z,11.20
2022-11-05T08:53:15.716Z,9.50
2022-11-05T08:56:52.804Z,12.40
2022-11-05T09:00:49.524Z,10.50
2022-11-05T09:04:10.479Z,10.00
2022-11-05T09:07:48.428Z,10.60
2022-11-05T09:11:43.027Z,8.90
2022-11-05T09:15:26.857Z,10.90
2022-11-05T09:18:48.385Z,7.80
2022-11-05T09:22:25.359Z,7.90
2022-11-05T09:26:22.092Z,6.60
2022-11-05T09:30:02.361Z,8.20
2022-11-05T09:33:42.004Z,8.10
2022-11-05T09:37:02.999Z,8.90
2022-11-05T09:41:11.880Z,8.50
2022-11-05T09:44:49.128Z,7.30
2022-11-05T09:48:33.266Z,6.10
2022-11-05T09:51:56.661Z,6.30
2022-11-05T09:55:41.997Z,5.90
2022-11-05T09:59:35.899Z,4.70
2022-11-05T10:03:21.418Z,4.30
2022-11-05T10:06:50.137Z,4.70
2022-11-05T10:10:41.023Z,4.70
2022-11-05T10:14:33.029Z,8.10
2022-11-05T10:17:59.624Z,3.80
2022-11-05T10:21:51.831Z,3.80
2022-11-05T10:25:37.322Z,2.80
2022-11-05T10:28:58.249Z,6.70
2022-11-05T10:32:40.489Z,5.60
2022-11-05T10:36:37.258Z,5.30
2022-11-05T10:40:30.420Z,6.80
2022-11-05T10:44:28.363Z,6.40
2022-11-05T10:47:58.347Z,7.20
2022-11-05T10:51:27.455Z,5.50
2022-11-05T10:55:34.712Z,7.30
2022-11-05T10:59:27.682Z,5.40
2022-11-05T11:03:29.490Z,4.90
2022-11-05T11:06:56.854Z,7.90
2022-11-05T11:11:04.570Z,8.00
2022-11-05T11:15:01.966Z,7.80
2022-11-05T11:18:29.258Z,4.80
2022-11-05T11:22:03.645Z,6.20
2022-11-05T11:26:01.059Z,5.60
2022-11-05T11:29:28.765Z,6.20
2022-11-05T11:33:23.205Z,9.90
2022-11-05T11:36:49.302Z,7.10
2022-11-05T11:40:23.495Z,6.80
2022-11-05T11:44:19.577Z,8.50
2022-11-05T11:48:11.643Z,7.70
2022-11-05T11:51:40.802Z,8.90
2022-11-05T11:55:13.480Z,6.00
2022-11-05T11:59:30.799Z,9.90
2022-11-05T12:03:15.047Z,6.40
2022-11-05T12:07:19.802Z,7.20
2022-11-05T12:10:54.587Z,7.80
2022-11-05T12:14:53.876Z,8.90
2022-11-05T12:18:39.708Z,4.70
2022-11-05T12:22:26.736Z,5.30
2022-11-05T12:25:50.696Z,6.80
2022-11-05T12:29:38.278Z,6.70
2022-11-05T12:33:49.488Z,6.80
2022-11-05T12:37:26.131Z,6.80
2022-11-05T12:40:57.059Z,5.10
2022-11-05T12:44:38.153Z,4.50
2022-11-05T12:48:27.539Z,8.00
2022-11-05T12:51:59.855Z,10.90
2022-11-05T12:55:48.388Z,11.30
2022-11-05T12:59:16.033Z,8.20
2022-11-05T13:03:02.527Z,11.00
2022-11-05T13:06:39.773Z,8.40
2022-11-05T13:10:25.290Z,9.90
2022-11-05T13:14:14.600Z,13.00
2022-11-05T13:17:59.364Z,6.60
2022-11-05T13:21:24.212Z,7.80
2022-11-05T13:25:21.068Z,9.40
2022-11-05T13:28:55.656Z,12.80
2022-11-05T13:32:38.010Z,7.90
2022-11-05T13:36:45.805Z,10.00
2022-11-05T13:40:11.971Z,8.90
2022-11-05T13:44:41.239Z,6.20
2022-11-05T13:48:33.075Z,8.60
2022-11-05T13:52:23.160Z,9.10
2022-11-05T13:56:03.452Z,7.20
2022-11-05T13:59:57.879Z,9.20
2022-11-05T14:03:21.207Z,12.40
2022-11-05T14:07:15.263Z,12.50
2022-11-05T14:10:43.936Z,9.30
2022-11-05T14:14:22.904Z,10.70
2022-11-05T14:18:23.447Z,8.80
2022-11-05T14:22:28.120Z,6.80
2022-11-05T14:26:21.670Z,10.30
2022-11-05T14:29:49.822Z,10.40
2022-11-05T14:33:26.231Z,9.20
2022-11-05T14:37:22.297Z,10.30
2022-11-05T14:40:47.689Z,7.80
2022-11-05T14:44:21.288Z,12.20
2022-11-05T14:48:05.327Z,9.70
2022-11-05T14:51:58.568Z,6.70
2022-11-05T14:55:42.618Z,11.40
2022-11-05T14:59:30.924Z,9.60
2022-11-05T15:02:58.175Z,9.40
2022-11-05T15:06:37.348Z,6.00
2022-11-05T15:10:15.726Z,9.00
2022-11-05T15:14:02.831Z,11.60
2022-11-05T15:17:31.978Z,8.00
2022-11-05T15:21:05.019Z,6.60
2022-11-05T15:24:42.895Z,5.10
2022-11-05T15:28:37.421Z,7.90
2022-11-05T15:31:59.076Z,6.20
2022-11-05T15:35:39.773Z,5.90
2022-11-05T15:39:41.645Z,5.10
2022-11-05T15:43:19.648Z,8.90
2022-11-05T15:46:41.116Z,7.30
2022-11-05T15:50:18.653Z,9.30
2022-11-05T15:54:28.949Z,6.20
2022-11-05T15:57:51.289Z,10.70
2022-11-05T16:01:28.370Z,16.40
2022-11-05T16:05:17.744Z,18.60
2022-11-05T16:08:57.460Z,22.70
2022-11-05T16:12:18.954Z,20.00
2022-11-05T16:16:00.051Z,12.50
2022-11-05T16:19:40.340Z,11.30
2022-11-05T16:23:25.258Z,13.40
2022-11-05T16:27:03.606Z,14.40
2022-11-05T16:30:27.687Z,17.00
2022-11-05T16:34:40.857Z,17.30
2022-11-05T16:38:20.473Z,16.50
2022-11-05T16:41:43.359Z,18.90
2022-11-05T16:45:41.278Z,19.30
2022-11-05T16:49:21.996Z,18.10
2022-11-05T16:52:45.188Z,20.30
2022-11-05T16:56:22.614Z,17.00
2022-11-05T17:00:00.524Z,22.30
2022-11-05T17:03:54.704Z,20.70
2022-11-05T17:07:15.392Z,18.30
2022-11-05T17:11:17.393Z,20.50
2022-11-05T17:14:38.604Z,20.10
2022-11-05T17:18:18.768Z,23.70
2022-11-05T17:22:12.300Z,22.20
2022-11-05T17:25:33.213Z,20.20
2022-11-05T17:29:11.291Z,22.80
2022-11-05T17:33:07.434Z,16.50
2022-11-05T17:36:28.107Z,13.00
2022-11-05T17:40:08.035Z,20.50
2022-11-05T17:44:02.340Z,14.40
2022-11-05T17:47:42.144Z,16.30
2022-11-05T17:51:03.498Z,18.30
2022-11-05T17:54:40.340Z,17.40
2022-11-05T17:58:18.958Z,15.60
2022-11-05T18:01:56.217Z,15.70
2022-11-05T18:05:52.449Z,14.70
2022-11-05T18:09:13.891Z,16.60
2022-11-05T18:12:51.204Z,19.80
2022-11-05T18:16:28.269Z,19.40
2022-11-05T18:20:10.695Z,16.80
2022-11-05T18:23:43.882Z,15.30
2022-11-05T18:27:24.642Z,40.00
2022-11-05T18:31:20.033Z,22.40
2022-11-05T18:34:40.886Z,16.40
2022-11-05T18:38:18.550Z,18.50
2022-11-05T18:41:56.318Z,17.60
2022-11-05T18:45:55.813Z,16.50
2022-11-05T18:49:16.662Z,22.70
2022-11-05T18:52:54.227Z,18.60
2022-11-05T18:56:32.645Z,18.20
2022-11-05T19:00:10.075Z,19.10
2022-11-05T19:03:48.118Z,18.60
2022-11-05T19:07:24.821Z,20.30
2022-11-05T19:11:09.347Z,23.30
2022-11-05T19:15:02.333Z,12.70
2022-11-05T19:18:24.007Z,16.80
2022-11-05T19:22:01.545Z,22.20
2022-11-05T19:25:39.368Z,17.50
2022-11-05T19:29:16.729Z,24.90
2022-11-05T19:32:57.341Z,21.00
2022-11-05T19:36:33.259Z,21.40
2022-11-05T19:40:28.817Z,22.20
2022-11-05T19:43:50.342Z,21.80
2022-11-05T19:47:27.289Z,25.10
2022-11-05T19:51:10.285Z,18.10
2022-11-05T19:54:42.671Z,14.50
2022-11-05T19:58:20.102Z,21.80
2022-11-05T20:02:18.454Z,17.50
2022-11-05T20:05:39.375Z,19.10
2022-11-05T20:09:22.052Z,18.10
2022-11-05T20:13:19.634Z,27.00
2022-11-05T20:16:42.391Z,19.80
2022-11-05T20:20:19.402Z,20.10
2022-11-05T20:24:22.462Z,18.00
2022-11-05T20:27:45.225Z,20.30
2022-11-05T20:31:24.073Z,24.60
2022-11-05T20:35:00.617Z,14.20
2022-11-05T20:38:38.649Z,18.60
2022-11-05T20:42:36.999Z,22.20
2022-11-05T20:45:59.085Z,17.90
2022-11-05T20:49:36.867Z,14.20
2022-11-05T20:53:14.432Z,22.80
2022-11-05T20:57:10.619Z,23.10
2022-11-05T21:00:31.557Z,16.10
2022-11-05T21:04:08.908Z,20.40
2022-11-05T21:08:05.638Z,21.20
2022-11-05T21:11:26.824Z,19.70
2022-11-05T21:15:05.972Z,18.60
2022-11-05T21:18:42.139Z,20.20
2022-11-05T21:22:20.035Z,21.30
2022-11-05T21:25:57.427Z,23.20
2022-11-05T21:29:35.269Z,18.50
2022-11-05T21:33:32.851Z,21.30
2022-11-05T21:37:12.762Z,22.50
2022-11-05T21:40:33.417Z,21.20
2022-11-05T21:44:11.225Z,24.20
2022-11-05T21:47:48.750Z,22.00
2022-11-05T21:51:45.898Z,24.10
2022-11-05T21:55:44.704Z,23.40
2022-11-05T21:59:25.300Z,20.30
2022-11-05T22:02:46.781Z,22.90
2022-11-05T22:06:43.386Z,26.20
2022-11-05T22:10:09.658Z,25.10
2022-11-05T22:14:00.463Z,20.70
2022-11-05T22:17:21.882Z,20.20
2022-11-05T22:21:18.357Z,23.10
2022-11-05T22:24:59.066Z,26.60
2022-11-05T22:28:20.170Z,20.30
2022-11-05T22:32:16.503Z,17.30
2022-11-05T22:35:39.431Z,25.90
2022-11-05T22:39:33.871Z,21.60
2022-11-05T22:42:54.560Z,27.70
2022-11-05T22:46:51.954Z,21.40
2022-11-05T22:50:12.659Z,28.20
2022-11-05T22:53:50.581Z,19.90
2022-11-05T22:57:27.980Z,20.80
2022-11-05T23:01:07.981Z,19.40
2022-11-05T23:04:43.234Z,22.40
2022-11-05T23:08:58.466Z,23.40
2022-11-05T23:12:38.579Z,23.40
2022-11-05T23:16:18.125Z,21.80
2022-11-05T23:20:30.992Z,24.50
2022-11-05T23:24:06.944Z,24.60
2022-11-05T23:27:50.759Z,19.90
2022-11-05T23:31:30.075Z,21.70
2022-11-05T23:35:10.987Z,19.40
2022-11-05T23:38:50.808Z,22.20
2022-11-05T23:42:51.522Z,22.10
2022-11-05T23:46:49.833Z,16.20
2022-11-05T23:50:34.405Z,22.40
2022-11-05T23:54:16.493Z,19.40
2022-11-05T23:57:38.128Z,31.80
